createdAt,value
2019-03-30T00:04:41.149Z,101577
2019-03-30T00:10:03.793Z,101568
2019-03-30T00:15:26.891Z,101569
2019-03-30T00:20:49.732Z,101564
2019-03-30T00:26:13.129Z,101556
2019-03-30T00:31:35.930Z,101559
2019-03-30T00:36:59.226Z,101560
2019-03-30T00:42:21.953Z,101555
2019-03-30T00:47:44.581Z,101555
2019-03-30T00:53:07.314Z,101551
2019-03-30T00:58:29.948Z,101550
2019-03-30T01:03:52.565Z,101552
2019-03-30T01:09:15.199Z,101548
2019-03-30T01:14:37.886Z,101546
2019-03-30T01:20:02.958Z,101538
2019-03-30T01:25:23.156Z,101538
2019-03-30T01:30:45.804Z,101537
2019-03-30T01:36:08.626Z,101531
2019-03-30T01:41:31.252Z,101517
2019-03-30T01:46:53.897Z,101514
2019-03-30T01:52:17.627Z,101510
2019-03-30T01:57:41.508Z,101506
2019-03-30T02:03:04.669Z,101496
2019-03-30T02:08:28.291Z,101496
2019-03-30T02:13:51.659Z,101492
2019-03-30T02:19:15.369Z,101486
2019-03-30T02:24:38.009Z,101478
2019-03-30T02:30:00.699Z,101476
2019-03-30T02:35:26.426Z,101475
2019-03-30T02:40:45.990Z,101473
2019-03-30T02:46:08.616Z,101477
2019-03-30T02:51:31.347Z,101475
2019-03-30T02:56:53.986Z,101470
2019-03-30T03:02:16.783Z,101471
2019-03-30T03:07:39.463Z,101461
2019-03-30T03:13:02.201Z,101454
2019-03-30T03:18:24.869Z,101449
2019-03-30T03:23:48.530Z,101440
2019-03-30T03:29:11.277Z,101433
2019-03-30T03:34:33.941Z,101425
2019-03-30T03:39:56.626Z,101423
2019-03-30T03:45:19.320Z,101420
2019-03-30T03:50:42.984Z,101420
2019-03-30T03:56:05.726Z,101409
2019-03-30T04:01:28.448Z,101407
2019-03-30T04:06:51.114Z,101406
2019-03-30T04:12:13.858Z,101404
2019-03-30T04:17:36.538Z,101398
2019-03-30T04:22:59.359Z,101393
2019-03-30T04:28:22.132Z,101386
2019-03-30T04:33:44.827Z,101384
2019-03-30T04:39:07.486Z,101373
2019-03-30T04:44:30.210Z,101372
2019-03-30T04:49:52.874Z,101371
2019-03-30T04:55:15.579Z,101361
2019-03-30T05:00:38.239Z,101362
2019-03-30T05:06:00.948Z,101349
2019-03-30T05:11:23.817Z,101356
2019-03-30T05:16:47.342Z,101357
2019-03-30T05:22:12.709Z,101356
2019-03-30T05:27:34.031Z,101359
2019-03-30T05:33:05.316Z,101360
2019-03-30T05:38:20.483Z,101354
2019-03-30T05:43:43.118Z,101346
2019-03-30T05:49:05.845Z,101346
2019-03-30T05:54:29.213Z,101348
2019-03-30T05:59:51.907Z,101351
2019-03-30T06:05:14.553Z,101346
2019-03-30T06:10:38.710Z,101340
2019-03-30T06:15:59.890Z,101337
2019-03-30T06:21:22.642Z,101334
2019-03-30T06:26:45.315Z,101334
2019-03-30T06:32:07.968Z,101335
2019-03-30T06:37:30.638Z,101326
2019-03-30T06:42:53.300Z,101333
2019-03-30T06:48:16.956Z,101331
2019-03-30T06:53:39.657Z,101330
2019-03-30T06:59:02.339Z,101327
2019-03-30T07:04:26.880Z,101326
2019-03-30T07:09:49.621Z,101331
2019-03-30T07:15:12.346Z,101325
2019-03-30T07:20:35.032Z,101328
2019-03-30T07:25:57.696Z,101330
2019-03-30T07:31:20.359Z,101328
2019-03-30T07:36:43.103Z,101320
2019-03-30T07:42:05.778Z,101326
2019-03-30T07:47:28.530Z,101324
2019-03-30T07:52:51.163Z,101324
2019-03-30T07:58:14.015Z,101326
2019-03-30T08:03:36.693Z,101326
2019-03-30T08:08:59.398Z,101316
2019-03-30T08:14:22.090Z,101310
2019-03-30T08:19:44.823Z,101307
2019-03-30T08:25:08.466Z,101313
2019-03-30T08:30:31.306Z,101308
2019-03-30T08:35:54.126Z,101292
2019-03-30T08:41:16.823Z,101293
2019-03-30T08:46:39.643Z,101290
2019-03-30T08:52:03.365Z,101293
2019-03-30T08:57:26.020Z,101286
2019-03-30T09:02:48.684Z,101279
2019-03-30T09:08:13.428Z,101279
2019-03-30T09:13:36.300Z,101267
2019-03-30T09:18:59.271Z,101262
2019-03-30T09:24:22.189Z,101259
2019-03-30T09:29:44.879Z,101260
2019-03-30T09:35:07.574Z,101256
2019-03-30T09:40:30.179Z,101249
2019-03-30T09:45:53.018Z,101242
2019-03-30T09:51:15.635Z,101243
2019-03-30T09:56:38.282Z,101239
2019-03-30T10:02:00.881Z,101245
2019-03-30T10:07:23.500Z,101239
2019-03-30T10:12:46.104Z,101229
2019-03-30T10:18:08.780Z,101217
2019-03-30T10:23:32.593Z,101210
2019-03-30T10:28:55.242Z,101204
2019-03-30T10:34:17.870Z,101202
2019-03-30T10:39:40.550Z,101199
2019-03-30T10:45:03.154Z,101192
2019-03-30T10:50:25.842Z,101184
2019-03-30T10:55:48.461Z,101172
2019-03-30T11:01:11.212Z,101166
2019-03-30T11:06:33.838Z,101166
2019-03-30T11:11:56.400Z,101157
2019-03-30T11:17:19.409Z,101156
2019-03-30T11:22:41.634Z,101145
2019-03-30T11:28:04.302Z,101143
2019-03-30T11:33:26.978Z,101143
2019-03-30T11:38:49.594Z,101140
2019-03-30T11:44:12.263Z,101134
2019-03-30T11:49:34.900Z,101129
2019-03-30T11:54:57.520Z,101129
2019-03-30T12:00:20.152Z,101119
2019-03-30T12:05:42.776Z,101122
2019-03-30T12:11:06.451Z,101114
2019-03-30T12:16:29.607Z,101095
2019-03-30T12:21:52.300Z,101104
2019-03-30T12:27:14.897Z,101094
2019-03-30T12:32:38.108Z,101084
2019-03-30T12:38:00.697Z,101083
2019-03-30T12:43:23.430Z,101072
2019-03-30T12:48:46.027Z,101073
2019-03-30T12:54:08.659Z,101066
2019-03-30T12:59:31.294Z,101055
2019-03-30T13:04:53.920Z,101056
2019-03-30T13:10:16.556Z,101062
2019-03-30T13:15:39.222Z,101064
2019-03-30T13:21:01.803Z,101067
2019-03-30T13:26:24.505Z,101061
2019-03-30T13:31:47.219Z,101063
2019-03-30T13:37:09.863Z,101044
2019-03-30T13:42:32.485Z,101058
2019-03-30T13:47:55.145Z,101045
2019-03-30T13:53:17.730Z,101039
2019-03-30T13:58:40.489Z,101044
2019-03-30T14:04:03.409Z,101038
2019-03-30T14:09:26.210Z,101049
2019-03-30T14:14:48.943Z,101046
2019-03-30T14:20:11.625Z,101038
2019-03-30T14:25:34.483Z,101039
2019-03-30T14:30:57.131Z,101039
2019-03-30T14:36:20.024Z,101030
2019-03-30T14:41:42.983Z,101032
2019-03-30T14:47:05.905Z,101033
2019-03-30T14:52:27.841Z,101022
2019-03-30T14:57:50.893Z,101020
2019-03-30T15:03:14.029Z,101013
2019-03-30T15:08:36.816Z,101017
2019-03-30T15:13:59.734Z,101014
2019-03-30T15:19:22.718Z,101020
2019-03-30T15:24:45.507Z,101017
2019-03-30T15:30:09.296Z,101009
2019-03-30T15:35:32.521Z,101007
2019-03-30T15:40:56.509Z,101005
2019-03-30T15:46:19.508Z,100986
2019-03-30T15:51:42.360Z,101001
2019-03-30T15:57:13.744Z,101002
2019-03-30T16:02:29.303Z,101002
2019-03-30T16:07:52.093Z,100999
2019-03-30T16:13:16.321Z,100998
2019-03-30T16:18:39.073Z,100984
2019-03-30T16:24:02.079Z,100990
2019-03-30T16:29:25.062Z,100995
2019-03-30T16:34:47.865Z,100998
2019-03-30T16:40:10.508Z,100989
2019-03-30T16:45:33.198Z,100997
2019-03-30T16:50:55.944Z,100992
2019-03-30T16:56:19.563Z,101001
2019-03-30T17:01:42.260Z,100999
2019-03-30T17:07:04.956Z,101000
2019-03-30T17:12:27.650Z,100999
2019-03-30T17:17:51.397Z,100996
2019-03-30T17:23:14.104Z,100996
2019-03-30T17:28:36.964Z,100998
2019-03-30T17:33:59.673Z,100997
2019-03-30T17:39:22.539Z,100996
2019-03-30T17:44:45.204Z,100996
2019-03-30T17:50:07.868Z,101004
2019-03-30T17:55:33.782Z,101000
2019-03-30T18:00:53.360Z,101010
2019-03-30T18:06:16.112Z,101011
2019-03-30T18:11:38.806Z,101016
2019-03-30T18:17:01.547Z,101025
2019-03-30T18:22:24.291Z,101028
2019-03-30T18:27:47.003Z,101035
2019-03-30T18:33:09.836Z,101037
2019-03-30T18:38:32.637Z,101044
2019-03-30T18:43:55.317Z,101063
2019-03-30T18:49:19.185Z,101070
2019-03-30T18:54:41.959Z,101085
2019-03-30T19:00:04.650Z,101088
2019-03-30T19:05:27.344Z,101093
2019-03-30T19:10:50.129Z,101087
2019-03-30T19:16:12.875Z,101091
2019-03-30T19:21:35.692Z,101090
2019-03-30T19:26:58.398Z,101094
2019-03-30T19:32:21.072Z,101088
2019-03-30T19:37:43.767Z,101087
2019-03-30T19:43:06.518Z,101086
2019-03-30T19:48:30.155Z,101091
2019-03-30T19:53:54.062Z,101094
2019-03-30T19:59:17.928Z,101094
2019-03-30T20:04:40.766Z,101100
2019-03-30T20:10:07.153Z,101101
2019-03-30T20:15:29.852Z,101105
2019-03-30T20:20:52.671Z,101107
2019-03-30T20:26:15.387Z,101114
2019-03-30T20:31:38.313Z,101116
2019-03-30T20:37:00.965Z,101123
2019-03-30T20:42:23.905Z,101123
2019-03-30T20:47:48.161Z,101125
2019-03-30T20:53:10.413Z,101122
2019-03-30T20:58:33.358Z,101123
2019-03-30T21:03:57.163Z,101120
2019-03-30T21:09:19.887Z,101123
2019-03-30T21:14:42.696Z,101129
2019-03-30T21:20:05.450Z,101131
2019-03-30T21:25:28.296Z,101133
2019-03-30T21:30:52.083Z,101133
2019-03-30T21:36:14.883Z,101128
2019-03-30T21:41:37.597Z,101129
2019-03-30T21:47:02.159Z,101126
2019-03-30T21:52:24.831Z,101134
2019-03-30T21:57:47.545Z,101132
2019-03-30T22:03:10.187Z,101138
2019-03-30T22:08:33.006Z,101143
2019-03-30T22:13:55.722Z,101145
2019-03-30T22:19:18.410Z,101148
2019-03-30T22:24:41.151Z,101158
2019-03-30T22:30:05.577Z,101152
2019-03-30T22:35:29.028Z,101154
2019-03-30T22:40:51.943Z,101146
2019-03-30T22:46:14.643Z,101144
2019-03-30T22:51:37.335Z,101135
2019-03-30T22:56:59.991Z,101142
2019-03-30T23:02:22.672Z,101150
2019-03-30T23:07:46.156Z,101155
2019-03-30T23:13:08.815Z,101152
2019-03-30T23:18:31.484Z,101160
2019-03-30T23:23:54.688Z,101162
2019-03-30T23:29:18.161Z,101170
2019-03-30T23:34:41.719Z,101163
2019-03-30T23:40:04.441Z,101157
2019-03-30T23:45:27.148Z,101155
2019-03-30T23:50:49.812Z,101159
2019-03-30T23:56:12.533Z,101158
